sensor_id;sensor_type;location;lat;lon;timestamp;temperature;humidity
81220;DHT22;70690;52.494;13.410;2023-07-29T00:00:27;19.90;79.80
81220;DHT22;70690;52.494;13.410;2023-07-29T00:02:53;19.80;79.90
81220;DHT22;70690;52.494;13.410;2023-07-29T00:05:19;19.80;80.00
81220;DHT22;70690;52.494;13.410;2023-07-29T00:07:44;19.80;80.00
81220;DHT22;70690;52.494;13.410;2023-07-29T00:10:10;19.80;80.10
81220;DHT22;70690;52.494;13.410;2023-07-29T00:12:36;19.80;80.10
81220;DHT22;70690;52.494;13.410;2023-07-29T00:15:02;19.70;80.00
81220;DHT22;70690;52.494;13.410;2023-07-29T00:17:27;19.70;80.10
81220;DHT22;70690;52.494;13.410;2023-07-29T00:19:53;19.70;80.20
81220;DHT22;70690;52.494;13.410;2023-07-29T00:22:19;19.70;80.20
81220;DHT22;70690;52.494;13.410;2023-07-29T00:24:45;19.70;80.10
81220;DHT22;70690;52.494;13.410;2023-07-29T00:27:16;19.60;80.10
81220;DHT22;70690;52.494;13.410;2023-07-29T00:29:42;19.60;80.00
81220;DHT22;70690;52.494;13.410;2023-07-29T00:32:07;19.60;79.90
81220;DHT22;70690;52.494;13.410;2023-07-29T00:34:33;19.60;79.90
81220;DHT22;70690;52.494;13.410;2023-07-29T00:36:59;19.50;80.00
81220;DHT22;70690;52.494;13.410;2023-07-29T00:39:24;19.50;80.00
81220;DHT22;70690;52.494;13.410;2023-07-29T00:41:50;19.50;80.30
81220;DHT22;70690;52.494;13.410;2023-07-29T00:44:16;19.50;80.10
81220;DHT22;70690;52.494;13.410;2023-07-29T00:46:44;19.50;80.00
81220;DHT22;70690;52.494;13.410;2023-07-29T00:49:11;19.40;80.10
81220;DHT22;70690;52.494;13.410;2023-07-29T00:51:37;19.40;80.30
81220;DHT22;70690;52.494;13.410;2023-07-29T00:54:02;19.40;80.50
81220;DHT22;70690;52.494;13.410;2023-07-29T00:56:28;19.30;80.60
81220;DHT22;70690;52.494;13.410;2023-07-29T00:58:54;19.30;80.70
81220;DHT22;70690;52.494;13.410;2023-07-29T01:01:24;19.30;80.70
81220;DHT22;70690;52.494;13.410;2023-07-29T01:03:50;19.30;80.50
81220;DHT22;70690;52.494;13.410;2023-07-29T01:09:33;19.30;80.50
81220;DHT22;70690;52.494;13.410;2023-07-29T01:14:51;19.20;80.60
81220;DHT22;70690;52.494;13.410;2023-07-29T01:17:26;19.30;80.60
81220;DHT22;70690;52.494;13.410;2023-07-29T01:20:02;19.20;80.40
81220;DHT22;70690;52.494;13.410;2023-07-29T01:22:37;19.20;80.40
81220;DHT22;70690;52.494;13.410;2023-07-29T01:25:21;19.20;80.40
81220;DHT22;70690;52.494;13.410;2023-07-29T01:27:49;19.20;80.70
81220;DHT22;70690;52.494;13.410;2023-07-29T01:30:17;19.10;80.90
81220;DHT22;70690;52.494;13.410;2023-07-29T01:32:50;19.00;80.70
81220;DHT22;70690;52.494;13.410;2023-07-29T01:35:36;19.10;80.70
81220;DHT22;70690;52.494;13.410;2023-07-29T01:38:14;19.10;80.60
81220;DHT22;70690;52.494;13.410;2023-07-29T01:40:42;19.10;80.70
81220;DHT22;70690;52.494;13.410;2023-07-29T01:43:10;19.00;81.00
81220;DHT22;70690;52.494;13.410;2023-07-29T01:45:36;19.00;81.10
81220;DHT22;70690;52.494;13.410;2023-07-29T01:48:05;19.00;80.60
81220;DHT22;70690;52.494;13.410;2023-07-29T01:50:31;19.20;79.90
81220;DHT22;70690;52.494;13.410;2023-07-29T01:53:00;19.10;79.80
81220;DHT22;70690;52.494;13.410;2023-07-29T01:55:25;19.00;80.00
81220;DHT22;70690;52.494;13.410;2023-07-29T01:57:51;19.00;80.10
81220;DHT22;70690;52.494;13.410;2023-07-29T02:00:18;19.00;80.00
81220;DHT22;70690;52.494;13.410;2023-07-29T02:02:44;18.90;80.20
81220;DHT22;70690;52.494;13.410;2023-07-29T02:05:10;18.80;80.60
81220;DHT22;70690;52.494;13.410;2023-07-29T02:07:36;18.80;80.70
81220;DHT22;70690;52.494;13.410;2023-07-29T02:10:02;18.80;80.70
81220;DHT22;70690;52.494;13.410;2023-07-29T02:12:28;18.80;80.70
81220;DHT22;70690;52.494;13.410;2023-07-29T02:14:54;18.90;80.30
81220;DHT22;70690;52.494;13.410;2023-07-29T02:17:19;18.80;80.30
81220;DHT22;70690;52.494;13.410;2023-07-29T02:19:45;18.90;80.00
81220;DHT22;70690;52.494;13.410;2023-07-29T02:22:15;18.90;79.90
81220;DHT22;70690;52.494;13.410;2023-07-29T02:24:41;18.80;80.50
81220;DHT22;70690;52.494;13.410;2023-07-29T02:27:07;18.70;80.60
81220;DHT22;70690;52.494;13.410;2023-07-29T02:29:33;18.70;80.70
81220;DHT22;70690;52.494;13.410;2023-07-29T02:31:59;18.80;80.60
81220;DHT22;70690;52.494;13.410;2023-07-29T02:34:25;18.70;80.50
81220;DHT22;70690;52.494;13.410;2023-07-29T02:36:51;18.70;80.70
81220;DHT22;70690;52.494;13.410;2023-07-29T02:39:17;18.70;81.00
81220;DHT22;70690;52.494;13.410;2023-07-29T02:41:42;18.80;80.10
81220;DHT22;70690;52.494;13.410;2023-07-29T02:44:08;18.70;80.40
81220;DHT22;70690;52.494;13.410;2023-07-29T02:46:34;18.70;80.60
81220;DHT22;70690;52.494;13.410;2023-07-29T02:49:01;18.60;81.10
81220;DHT22;70690;52.494;13.410;2023-07-29T02:51:27;18.60;81.30
81220;DHT22;70690;52.494;13.410;2023-07-29T02:53:52;18.60;81.40
81220;DHT22;70690;52.494;13.410;2023-07-29T02:56:18;18.60;81.10
81220;DHT22;70690;52.494;13.410;2023-07-29T02:58:44;18.60;81.10
81220;DHT22;70690;52.494;13.410;2023-07-29T03:01:10;18.60;81.10
81220;DHT22;70690;52.494;13.410;2023-07-29T03:03:35;18.60;81.10
81220;DHT22;70690;52.494;13.410;2023-07-29T03:06:09;18.60;81.00
81220;DHT22;70690;52.494;13.410;2023-07-29T03:08:36;18.70;80.50
81220;DHT22;70690;52.494;13.410;2023-07-29T03:11:07;18.60;80.50
81220;DHT22;70690;52.494;13.410;2023-07-29T03:13:33;18.60;80.70
81220;DHT22;70690;52.494;13.410;2023-07-29T03:16:12;18.50;80.80
81220;DHT22;70690;52.494;13.410;2023-07-29T03:18:39;18.60;80.60
81220;DHT22;70690;52.494;13.410;2023-07-29T03:21:06;18.50;80.40
81220;DHT22;70690;52.494;13.410;2023-07-29T03:23:33;18.50;80.40
81220;DHT22;70690;52.494;13.410;2023-07-29T03:26:00;18.50;80.80
81220;DHT22;70690;52.494;13.410;2023-07-29T03:28:31;18.60;80.80
81220;DHT22;70690;52.494;13.410;2023-07-29T03:30:57;18.60;80.90
81220;DHT22;70690;52.494;13.410;2023-07-29T03:33:25;18.60;81.70
81220;DHT22;70690;52.494;13.410;2023-07-29T03:35:51;18.60;80.80
81220;DHT22;70690;52.494;13.410;2023-07-29T03:38:17;18.50;80.90
81220;DHT22;70690;52.494;13.410;2023-07-29T03:40:43;18.60;80.60
81220;DHT22;70690;52.494;13.410;2023-07-29T03:43:09;18.70;80.50
81220;DHT22;70690;52.494;13.410;2023-07-29T03:45:36;18.60;80.40
81220;DHT22;70690;52.494;13.410;2023-07-29T03:48:02;18.60;80.50
81220;DHT22;70690;52.494;13.410;2023-07-29T03:50:29;18.60;80.60
81220;DHT22;70690;52.494;13.410;2023-07-29T03:52:55;18.60;80.80
81220;DHT22;70690;52.494;13.410;2023-07-29T03:55:21;18.60;80.50
81220;DHT22;70690;52.494;13.410;2023-07-29T03:57:47;18.60;80.70
81220;DHT22;70690;52.494;13.410;2023-07-29T04:00:13;18.60;80.80
81220;DHT22;70690;52.494;13.410;2023-07-29T04:02:39;18.60;80.80
81220;DHT22;70690;52.494;13.410;2023-07-29T04:05:06;18.70;80.70
81220;DHT22;70690;52.494;13.410;2023-07-29T04:07:34;18.70;80.80
81220;DHT22;70690;52.494;13.410;2023-07-29T04:10:01;18.70;80.60
81220;DHT22;70690;52.494;13.410;2023-07-29T04:12:27;18.70;80.80
81220;DHT22;70690;52.494;13.410;2023-07-29T04:14:53;18.70;80.70
81220;DHT22;70690;52.494;13.410;2023-07-29T04:17:19;18.80;80.70
81220;DHT22;70690;52.494;13.410;2023-07-29T04:19:44;18.80;80.60
81220;DHT22;70690;52.494;13.410;2023-07-29T04:22:10;18.90;80.60
81220;DHT22;70690;52.494;13.410;2023-07-29T04:24:36;18.90;80.40
81220;DHT22;70690;52.494;13.410;2023-07-29T04:27:02;19.00;80.10
81220;DHT22;70690;52.494;13.410;2023-07-29T04:29:28;19.10;80.00
81220;DHT22;70690;52.494;13.410;2023-07-29T04:31:54;19.20;79.80
81220;DHT22;70690;52.494;13.410;2023-07-29T04:34:20;19.20;79.70
81220;DHT22;70690;52.494;13.410;2023-07-29T04:36:47;19.40;79.30
81220;DHT22;70690;52.494;13.410;2023-07-29T04:39:12;19.40;79.40
81220;DHT22;70690;52.494;13.410;2023-07-29T04:41:38;19.40;79.30
81220;DHT22;70690;52.494;13.410;2023-07-29T04:44:04;19.40;79.30
81220;DHT22;70690;52.494;13.410;2023-07-29T04:46:30;19.40;78.90
81220;DHT22;70690;52.494;13.410;2023-07-29T04:48:56;19.50;78.80
81220;DHT22;70690;52.494;13.410;2023-07-29T04:51:21;19.60;78.60
81220;DHT22;70690;52.494;13.410;2023-07-29T04:53:47;19.50;78.70
81220;DHT22;70690;52.494;13.410;2023-07-29T04:56:13;19.50;78.70
81220;DHT22;70690;52.494;13.410;2023-07-29T04:58:39;19.50;78.80
81220;DHT22;70690;52.494;13.410;2023-07-29T05:01:05;19.60;78.70
81220;DHT22;70690;52.494;13.410;2023-07-29T05:03:31;19.60;78.50
81220;DHT22;70690;52.494;13.410;2023-07-29T05:05:58;19.70;78.30
81220;DHT22;70690;52.494;13.410;2023-07-29T05:08:23;19.70;78.20
81220;DHT22;70690;52.494;13.410;2023-07-29T05:10:50;19.80;77.80
81220;DHT22;70690;52.494;13.410;2023-07-29T05:13:17;19.70;78.00
81220;DHT22;70690;52.494;13.410;2023-07-29T05:15:42;19.70;78.10
81220;DHT22;70690;52.494;13.410;2023-07-29T05:18:08;19.70;78.10
81220;DHT22;70690;52.494;13.410;2023-07-29T05:20:34;19.70;78.20
81220;DHT22;70690;52.494;13.410;2023-07-29T05:23:00;19.70;78.40
81220;DHT22;70690;52.494;13.410;2023-07-29T05:25:26;19.80;78.20
81220;DHT22;70690;52.494;13.410;2023-07-29T05:27:52;19.80;78.40
81220;DHT22;70690;52.494;13.410;2023-07-29T05:30:18;19.90;78.30
81220;DHT22;70690;52.494;13.410;2023-07-29T05:32:43;20.00;77.50
81220;DHT22;70690;52.494;13.410;2023-07-29T05:35:10;20.20;77.30
81220;DHT22;70690;52.494;13.410;2023-07-29T05:37:38;20.30;77.10
81220;DHT22;70690;52.494;13.410;2023-07-29T05:40:05;20.40;76.80
81220;DHT22;70690;52.494;13.410;2023-07-29T05:42:33;20.40;76.60
81220;DHT22;70690;52.494;13.410;2023-07-29T05:44:59;20.40;76.70
81220;DHT22;70690;52.494;13.410;2023-07-29T05:47:25;20.30;76.40
81220;DHT22;70690;52.494;13.410;2023-07-29T05:49:51;20.30;76.60
81220;DHT22;70690;52.494;13.410;2023-07-29T05:52:17;20.30;76.80
81220;DHT22;70690;52.494;13.410;2023-07-29T05:54:43;20.30;77.00
81220;DHT22;70690;52.494;13.410;2023-07-29T05:57:09;20.40;77.00
81220;DHT22;70690;52.494;13.410;2023-07-29T05:59:35;20.40;76.70
81220;DHT22;70690;52.494;13.410;2023-07-29T06:02:01;20.40;76.70
81220;DHT22;70690;52.494;13.410;2023-07-29T06:04:27;20.30;77.10
81220;DHT22;70690;52.494;13.410;2023-07-29T06:06:52;20.30;77.30
81220;DHT22;70690;52.494;13.410;2023-07-29T06:09:18;20.40;77.20
81220;DHT22;70690;52.494;13.410;2023-07-29T06:11:44;20.50;77.20
81220;DHT22;70690;52.494;13.410;2023-07-29T06:14:10;20.60;76.90
81220;DHT22;70690;52.494;13.410;2023-07-29T06:16:35;20.70;76.60
81220;DHT22;70690;52.494;13.410;2023-07-29T06:19:01;20.70;76.10
81220;DHT22;70690;52.494;13.410;2023-07-29T06:21:27;20.70;76.40
81220;DHT22;70690;52.494;13.410;2023-07-29T06:23:53;20.70;76.70
81220;DHT22;70690;52.494;13.410;2023-07-29T06:26:18;20.80;76.60
81220;DHT22;70690;52.494;13.410;2023-07-29T06:28:44;20.80;76.60
81220;DHT22;70690;52.494;13.410;2023-07-29T06:31:10;20.90;76.20
81220;DHT22;70690;52.494;13.410;2023-07-29T06:33:36;20.80;76.10
81220;DHT22;70690;52.494;13.410;2023-07-29T06:36:01;20.90;76.50
81220;DHT22;70690;52.494;13.410;2023-07-29T06:38:27;21.00;75.90
81220;DHT22;70690;52.494;13.410;2023-07-29T06:40:53;21.10;75.70
81220;DHT22;70690;52.494;13.410;2023-07-29T06:43:19;21.10;75.80
81220;DHT22;70690;52.494;13.410;2023-07-29T06:45:44;21.20;75.70
81220;DHT22;70690;52.494;13.410;2023-07-29T06:48:10;21.20;75.20
81220;DHT22;70690;52.494;13.410;2023-07-29T06:50:36;21.30;75.40
81220;DHT22;70690;52.494;13.410;2023-07-29T06:53:03;21.50;75.10
81220;DHT22;70690;52.494;13.410;2023-07-29T06:55:29;21.70;74.70
81220;DHT22;70690;52.494;13.410;2023-07-29T06:57:55;21.90;72.70
81220;DHT22;70690;52.494;13.410;2023-07-29T07:00:20;21.90;72.60
81220;DHT22;70690;52.494;13.410;2023-07-29T07:02:46;22.00;72.10
81220;DHT22;70690;52.494;13.410;2023-07-29T07:05:12;22.00;72.20
81220;DHT22;70690;52.494;13.410;2023-07-29T07:07:38;22.00;72.20
81220;DHT22;70690;52.494;13.410;2023-07-29T07:10:04;22.10;72.30
81220;DHT22;70690;52.494;13.410;2023-07-29T07:12:30;22.10;72.00
81220;DHT22;70690;52.494;13.410;2023-07-29T07:14:55;22.10;72.10
81220;DHT22;70690;52.494;13.410;2023-07-29T07:17:21;22.00;72.50
81220;DHT22;70690;52.494;13.410;2023-07-29T07:19:47;22.10;72.90
81220;DHT22;70690;52.494;13.410;2023-07-29T07:22:13;22.30;72.20
81220;DHT22;70690;52.494;13.410;2023-07-29T07:24:41;22.40;71.50
81220;DHT22;70690;52.494;13.410;2023-07-29T07:27:07;22.50;71.10
81220;DHT22;70690;52.494;13.410;2023-07-29T07:29:33;22.60;70.70
81220;DHT22;70690;52.494;13.410;2023-07-29T07:31:58;22.70;69.70
81220;DHT22;70690;52.494;13.410;2023-07-29T07:34:24;22.70;70.00
81220;DHT22;70690;52.494;13.410;2023-07-29T07:36:50;22.60;70.20
81220;DHT22;70690;52.494;13.410;2023-07-29T07:39:16;22.60;70.60
81220;DHT22;70690;52.494;13.410;2023-07-29T07:41:42;22.70;70.00
81220;DHT22;70690;52.494;13.410;2023-07-29T07:44:08;23.00;69.70
81220;DHT22;70690;52.494;13.410;2023-07-29T07:46:34;23.20;68.80
81220;DHT22;70690;52.494;13.410;2023-07-29T07:49:00;23.50;67.60
81220;DHT22;70690;52.494;13.410;2023-07-29T07:51:25;23.50;67.10
81220;DHT22;70690;52.494;13.410;2023-07-29T07:53:51;23.40;66.90
81220;DHT22;70690;52.494;13.410;2023-07-29T07:56:17;23.30;67.50
81220;DHT22;70690;52.494;13.410;2023-07-29T07:58:42;23.30;67.50
81220;DHT22;70690;52.494;13.410;2023-07-29T08:01:09;23.40;67.10
81220;DHT22;70690;52.494;13.410;2023-07-29T08:03:35;23.30;67.50
81220;DHT22;70690;52.494;13.410;2023-07-29T08:06:01;23.10;67.50
81220;DHT22;70690;52.494;13.410;2023-07-29T08:08:28;23.00;67.80
81220;DHT22;70690;52.494;13.410;2023-07-29T08:10:55;23.20;67.80
81220;DHT22;70690;52.494;13.410;2023-07-29T08:13:22;23.30;67.10
81220;DHT22;70690;52.494;13.410;2023-07-29T08:15:49;23.40;67.40
81220;DHT22;70690;52.494;13.410;2023-07-29T08:18:15;23.40;67.30
81220;DHT22;70690;52.494;13.410;2023-07-29T08:20:41;23.60;66.70
81220;DHT22;70690;52.494;13.410;2023-07-29T08:23:07;23.70;66.90
81220;DHT22;70690;52.494;13.410;2023-07-29T08:25:33;23.70;65.90
81220;DHT22;70690;52.494;13.410;2023-07-29T08:27:59;24.00;65.30
81220;DHT22;70690;52.494;13.410;2023-07-29T08:30:25;24.20;64.30
81220;DHT22;70690;52.494;13.410;2023-07-29T08:32:51;24.40;64.70
81220;DHT22;70690;52.494;13.410;2023-07-29T08:35:16;24.60;63.40
81220;DHT22;70690;52.494;13.410;2023-07-29T08:37:42;24.80;62.40
81220;DHT22;70690;52.494;13.410;2023-07-29T08:40:08;24.90;62.50
81220;DHT22;70690;52.494;13.410;2023-07-29T08:42:34;25.00;62.40
81220;DHT22;70690;52.494;13.410;2023-07-29T08:45:06;25.00;62.00
81220;DHT22;70690;52.494;13.410;2023-07-29T08:47:33;24.90;62.70
81220;DHT22;70690;52.494;13.410;2023-07-29T08:49:59;25.10;62.00
81220;DHT22;70690;52.494;13.410;2023-07-29T08:52:27;24.90;62.50
81220;DHT22;70690;52.494;13.410;2023-07-29T08:54:55;25.10;61.90
81220;DHT22;70690;52.494;13.410;2023-07-29T08:57:22;25.00;62.20
81220;DHT22;70690;52.494;13.410;2023-07-29T08:59:49;25.10;62.00
81220;DHT22;70690;52.494;13.410;2023-07-29T09:02:14;25.20;61.80
81220;DHT22;70690;52.494;13.410;2023-07-29T09:04:40;25.50;61.30
81220;DHT22;70690;52.494;13.410;2023-07-29T09:07:06;25.60;60.40
81220;DHT22;70690;52.494;13.410;2023-07-29T09:09:33;25.90;59.40
81220;DHT22;70690;52.494;13.410;2023-07-29T09:11:58;25.80;60.50
81220;DHT22;70690;52.494;13.410;2023-07-29T09:14:24;25.70;59.90
81220;DHT22;70690;52.494;13.410;2023-07-29T09:16:50;25.70;59.80
81220;DHT22;70690;52.494;13.410;2023-07-29T09:19:16;25.80;60.00
81220;DHT22;70690;52.494;13.410;2023-07-29T09:21:42;26.10;60.00
81220;DHT22;70690;52.494;13.410;2023-07-29T09:24:12;26.00;58.90
81220;DHT22;70690;52.494;13.410;2023-07-29T09:26:49;26.00;59.10
81220;DHT22;70690;52.494;13.410;2023-07-29T09:29:14;26.20;59.10
81220;DHT22;70690;52.494;13.410;2023-07-29T09:31:40;26.40;59.00
81220;DHT22;70690;52.494;13.410;2023-07-29T09:34:06;26.70;56.70
81220;DHT22;70690;52.494;13.410;2023-07-29T09:36:33;26.70;56.80
81220;DHT22;70690;52.494;13.410;2023-07-29T09:39:00;26.40;58.30
81220;DHT22;70690;52.494;13.410;2023-07-29T09:41:29;26.60;57.90
81220;DHT22;70690;52.494;13.410;2023-07-29T09:44:03;26.70;57.70
81220;DHT22;70690;52.494;13.410;2023-07-29T09:46:35;26.80;56.80
81220;DHT22;70690;52.494;13.410;2023-07-29T09:49:05;26.60;57.50
81220;DHT22;70690;52.494;13.410;2023-07-29T09:51:31;26.70;57.60
81220;DHT22;70690;52.494;13.410;2023-07-29T09:53:57;26.90;57.80
81220;DHT22;70690;52.494;13.410;2023-07-29T09:56:27;26.90;56.90
81220;DHT22;70690;52.494;13.410;2023-07-29T09:58:56;27.00;56.30
81220;DHT22;70690;52.494;13.410;2023-07-29T10:01:22;27.10;56.90
81220;DHT22;70690;52.494;13.410;2023-07-29T10:03:48;27.10;56.80
81220;DHT22;70690;52.494;13.410;2023-07-29T10:06:15;27.30;57.10
81220;DHT22;70690;52.494;13.410;2023-07-29T10:08:42;27.40;55.60
81220;DHT22;70690;52.494;13.410;2023-07-29T10:11:09;27.10;55.50
81220;DHT22;70690;52.494;13.410;2023-07-29T10:13:36;27.10;55.90
81220;DHT22;70690;52.494;13.410;2023-07-29T10:16:03;27.20;56.40
81220;DHT22;70690;52.494;13.410;2023-07-29T10:18:30;27.10;55.20
81220;DHT22;70690;52.494;13.410;2023-07-29T10:20:58;27.50;55.00
81220;DHT22;70690;52.494;13.410;2023-07-29T10:23:26;27.60;55.70
81220;DHT22;70690;52.494;13.410;2023-07-29T10:26:10;27.50;54.40
81220;DHT22;70690;52.494;13.410;2023-07-29T10:28:40;27.20;55.10
81220;DHT22;70690;52.494;13.410;2023-07-29T10:31:07;27.20;55.20
81220;DHT22;70690;52.494;13.410;2023-07-29T10:33:34;27.20;55.10
81220;DHT22;70690;52.494;13.410;2023-07-29T10:36:00;27.40;55.60
81220;DHT22;70690;52.494;13.410;2023-07-29T10:38:27;27.40;55.00
81220;DHT22;70690;52.494;13.410;2023-07-29T10:40:55;27.40;54.70
81220;DHT22;70690;52.494;13.410;2023-07-29T10:43:27;27.40;54.60
81220;DHT22;70690;52.494;13.410;2023-07-29T10:45:57;27.30;55.40
81220;DHT22;70690;52.494;13.410;2023-07-29T10:51:25;27.20;55.00
81220;DHT22;70690;52.494;13.410;2023-07-29T10:54:20;27.00;56.00
81220;DHT22;70690;52.494;13.410;2023-07-29T10:56:49;27.10;57.50
81220;DHT22;70690;52.494;13.410;2023-07-29T11:01:43;27.00;55.00
81220;DHT22;70690;52.494;13.410;2023-07-29T11:12:48;26.30;55.30
81220;DHT22;70690;52.494;13.410;2023-07-29T11:17:55;25.70;55.70
81220;DHT22;70690;52.494;13.410;2023-07-29T11:20:26;25.20;60.40
81220;DHT22;70690;52.494;13.410;2023-07-29T11:22:58;23.60;68.40
81220;DHT22;70690;52.494;13.410;2023-07-29T11:25:25;22.40;73.10
81220;DHT22;70690;52.494;13.410;2023-07-29T11:27:52;21.80;77.20
81220;DHT22;70690;52.494;13.410;2023-07-29T11:30:18;21.50;78.70
81220;DHT22;70690;52.494;13.410;2023-07-29T11:32:45;21.30;80.30
81220;DHT22;70690;52.494;13.410;2023-07-29T11:35:13;21.20;81.50
81220;DHT22;70690;52.494;13.410;2023-07-29T11:37:41;21.30;81.50
81220;DHT22;70690;52.494;13.410;2023-07-29T11:40:07;21.50;80.90
81220;DHT22;70690;52.494;13.410;2023-07-29T11:42:36;21.50;80.20
81220;DHT22;70690;52.494;13.410;2023-07-29T11:45:03;21.60;80.50
81220;DHT22;70690;52.494;13.410;2023-07-29T11:47:31;21.70;80.00
81220;DHT22;70690;52.494;13.410;2023-07-29T11:50:00;21.80;79.00
81220;DHT22;70690;52.494;13.410;2023-07-29T11:52:27;21.80;79.30
81220;DHT22;70690;52.494;13.410;2023-07-29T11:54:54;21.90;79.40
81220;DHT22;70690;52.494;13.410;2023-07-29T11:57:20;22.00;79.50
81220;DHT22;70690;52.494;13.410;2023-07-29T11:59:46;22.10;79.60
81220;DHT22;70690;52.494;13.410;2023-07-29T12:02:15;22.10;79.70
81220;DHT22;70690;52.494;13.410;2023-07-29T12:04:41;22.20;79.40
81220;DHT22;70690;52.494;13.410;2023-07-29T12:07:08;22.20;79.40
81220;DHT22;70690;52.494;13.410;2023-07-29T12:09:35;22.30;78.90
81220;DHT22;70690;52.494;13.410;2023-07-29T12:12:05;22.20;78.10
81220;DHT22;70690;52.494;13.410;2023-07-29T12:14:31;22.10;76.90
81220;DHT22;70690;52.494;13.410;2023-07-29T12:17:00;22.10;76.70
81220;DHT22;70690;52.494;13.410;2023-07-29T12:19:35;22.10;77.60
81220;DHT22;70690;52.494;13.410;2023-07-29T12:22:02;22.20;76.60
81220;DHT22;70690;52.494;13.410;2023-07-29T12:24:30;22.20;76.70
81220;DHT22;70690;52.494;13.410;2023-07-29T12:26:56;22.20;76.70
81220;DHT22;70690;52.494;13.410;2023-07-29T12:29:22;22.00;76.90
81220;DHT22;70690;52.494;13.410;2023-07-29T12:31:49;22.00;77.60
81220;DHT22;70690;52.494;13.410;2023-07-29T12:34:21;22.10;78.50
81220;DHT22;70690;52.494;13.410;2023-07-29T12:36:49;22.20;78.70
81220;DHT22;70690;52.494;13.410;2023-07-29T12:41:51;22.40;77.50
81220;DHT22;70690;52.494;13.410;2023-07-29T12:44:18;22.50;77.80
81220;DHT22;70690;52.494;13.410;2023-07-29T12:46:44;22.70;76.70
81220;DHT22;70690;52.494;13.410;2023-07-29T12:49:10;22.80;76.70
81220;DHT22;70690;52.494;13.410;2023-07-29T12:51:36;23.10;75.30
81220;DHT22;70690;52.494;13.410;2023-07-29T12:54:03;23.30;72.60
81220;DHT22;70690;52.494;13.410;2023-07-29T12:56:30;23.50;72.60
81220;DHT22;70690;52.494;13.410;2023-07-29T12:58:57;23.60;72.00
81220;DHT22;70690;52.494;13.410;2023-07-29T13:01:26;23.80;70.10
81220;DHT22;70690;52.494;13.410;2023-07-29T13:03:52;23.90;71.70
81220;DHT22;70690;52.494;13.410;2023-07-29T13:06:19;23.90;68.90
81220;DHT22;70690;52.494;13.410;2023-07-29T13:08:47;24.00;70.00
81220;DHT22;70690;52.494;13.410;2023-07-29T13:11:14;24.00;70.10
81220;DHT22;70690;52.494;13.410;2023-07-29T13:13:39;23.90;69.90
81220;DHT22;70690;52.494;13.410;2023-07-29T13:16:05;23.80;71.10
81220;DHT22;70690;52.494;13.410;2023-07-29T13:18:32;23.80;70.10
81220;DHT22;70690;52.494;13.410;2023-07-29T13:20:57;23.80;72.20
81220;DHT22;70690;52.494;13.410;2023-07-29T13:23:24;23.70;71.00
81220;DHT22;70690;52.494;13.410;2023-07-29T13:25:49;23.60;70.40
81220;DHT22;70690;52.494;13.410;2023-07-29T13:28:16;23.50;71.50
81220;DHT22;70690;52.494;13.410;2023-07-29T13:30:42;23.50;70.20
81220;DHT22;70690;52.494;13.410;2023-07-29T13:33:08;23.50;69.70
81220;DHT22;70690;52.494;13.410;2023-07-29T13:35:34;23.50;70.00
81220;DHT22;70690;52.494;13.410;2023-07-29T13:38:01;23.80;69.70
81220;DHT22;70690;52.494;13.410;2023-07-29T13:40:26;24.10;67.90
81220;DHT22;70690;52.494;13.410;2023-07-29T13:42:53;24.50;67.60
81220;DHT22;70690;52.494;13.410;2023-07-29T13:45:19;24.70;67.10
81220;DHT22;70690;52.494;13.410;2023-07-29T13:47:45;24.70;65.50
81220;DHT22;70690;52.494;13.410;2023-07-29T13:50:10;24.80;64.20
81220;DHT22;70690;52.494;13.410;2023-07-29T13:52:37;25.00;63.10
81220;DHT22;70690;52.494;13.410;2023-07-29T13:55:04;25.00;64.90
81220;DHT22;70690;52.494;13.410;2023-07-29T13:57:30;25.20;62.50
81220;DHT22;70690;52.494;13.410;2023-07-29T13:59:56;25.30;60.90
81220;DHT22;70690;52.494;13.410;2023-07-29T14:02:22;25.30;62.30
81220;DHT22;70690;52.494;13.410;2023-07-29T14:04:47;25.50;61.60
81220;DHT22;70690;52.494;13.410;2023-07-29T14:07:13;25.50;61.10
81220;DHT22;70690;52.494;13.410;2023-07-29T14:09:39;25.70;61.10
81220;DHT22;70690;52.494;13.410;2023-07-29T14:12:06;26.10;60.00
81220;DHT22;70690;52.494;13.410;2023-07-29T14:14:32;26.30;59.50
81220;DHT22;70690;52.494;13.410;2023-07-29T14:16:57;26.40;59.70
81220;DHT22;70690;52.494;13.410;2023-07-29T14:19:23;26.50;58.10
81220;DHT22;70690;52.494;13.410;2023-07-29T14:21:49;26.40;58.90
81220;DHT22;70690;52.494;13.410;2023-07-29T14:24:15;26.40;58.50
81220;DHT22;70690;52.494;13.410;2023-07-29T14:26:42;26.10;59.40
81220;DHT22;70690;52.494;13.410;2023-07-29T14:29:08;26.00;59.90
81220;DHT22;70690;52.494;13.410;2023-07-29T14:31:34;26.00;60.20
81220;DHT22;70690;52.494;13.410;2023-07-29T14:33:59;26.10;60.10
81220;DHT22;70690;52.494;13.410;2023-07-29T14:36:25;26.30;60.90
81220;DHT22;70690;52.494;13.410;2023-07-29T14:38:51;26.70;60.40
81220;DHT22;70690;52.494;13.410;2023-07-29T14:41:17;26.90;56.90
81220;DHT22;70690;52.494;13.410;2023-07-29T14:43:43;26.50;58.80
81220;DHT22;70690;52.494;13.410;2023-07-29T14:46:09;26.50;58.50
81220;DHT22;70690;52.494;13.410;2023-07-29T14:48:35;26.60;58.10
81220;DHT22;70690;52.494;13.410;2023-07-29T14:51:01;26.80;58.30
81220;DHT22;70690;52.494;13.410;2023-07-29T14:53:26;26.70;58.00
81220;DHT22;70690;52.494;13.410;2023-07-29T14:55:52;26.60;57.90
81220;DHT22;70690;52.494;13.410;2023-07-29T14:58:18;26.50;57.60
81220;DHT22;70690;52.494;13.410;2023-07-29T15:00:44;26.60;57.60
81220;DHT22;70690;52.494;13.410;2023-07-29T15:03:09;26.40;58.40
81220;DHT22;70690;52.494;13.410;2023-07-29T15:05:35;26.10;59.20
81220;DHT22;70690;52.494;13.410;2023-07-29T15:08:01;25.90;60.20
81220;DHT22;70690;52.494;13.410;2023-07-29T15:10:26;25.60;61.20
81220;DHT22;70690;52.494;13.410;2023-07-29T15:12:52;25.60;60.20
81220;DHT22;70690;52.494;13.410;2023-07-29T15:15:18;25.40;60.90
81220;DHT22;70690;52.494;13.410;2023-07-29T15:17:44;25.40;61.90
81220;DHT22;70690;52.494;13.410;2023-07-29T15:20:11;25.40;61.50
81220;DHT22;70690;52.494;13.410;2023-07-29T15:22:37;25.30;61.50
81220;DHT22;70690;52.494;13.410;2023-07-29T15:25:04;25.20;61.30
81220;DHT22;70690;52.494;13.410;2023-07-29T15:27:30;25.10;61.20
81220;DHT22;70690;52.494;13.410;2023-07-29T15:29:56;25.10;61.20
81220;DHT22;70690;52.494;13.410;2023-07-29T15:32:23;25.10;61.40
81220;DHT22;70690;52.494;13.410;2023-07-29T15:34:49;24.90;61.60
81220;DHT22;70690;52.494;13.410;2023-07-29T15:37:18;24.80;61.60